createdAt,value
2022-08-11T00:00:18.902Z,48.33
2022-08-11T00:02:54.432Z,47.33
2022-08-11T00:05:24.913Z,50.00
2022-08-11T00:07:57.875Z,48.25
2022-08-11T00:10:31.562Z,50.00
2022-08-11T00:13:04.852Z,50.00
2022-08-11T00:15:48.732Z,49.25
2022-08-11T00:18:19.980Z,50.00
2022-08-11T00:20:50.760Z,49.75
2022-08-11T00:25:53.852Z,50.00
2022-08-11T00:28:29.854Z,49.25
2022-08-11T00:31:04.468Z,50.00
2022-08-11T00:36:23.439Z,48.75
2022-08-11T00:39:04.915Z,47.50
2022-08-11T00:41:47.482Z,48.50
2022-08-11T00:44:44.842Z,49.00
2022-08-11T00:47:25.991Z,50.00
2022-08-11T00:50:23.310Z,50.00
2022-08-11T00:53:02.256Z,50.00
2022-08-11T00:56:19.570Z,50.00
2022-08-11T00:58:58.227Z,48.00
2022-08-11T01:01:31.376Z,48.25
2022-08-11T01:04:19.631Z,50.00
2022-08-11T01:07:01.810Z,49.75
2022-08-11T01:09:50.066Z,46.50
2022-08-11T01:12:53.629Z,45.00
2022-08-11T01:15:55.719Z,47.00
2022-08-11T01:18:57.898Z,47.75
2022-08-11T01:21:48.995Z,47.25
2022-08-11T01:24:46.427Z,46.50
2022-08-11T01:27:42.049Z,48.00
2022-08-11T01:30:33.377Z,48.33
2022-08-11T01:33:21.581Z,47.67
2022-08-11T01:36:09.443Z,48.67
2022-08-11T01:39:11.521Z,48.00
2022-08-11T01:42:39.821Z,48.25
2022-08-11T01:45:38.926Z,48.00
2022-08-11T01:48:44.997Z,47.00
2022-08-11T01:51:33.079Z,48.00
2022-08-11T01:54:15.123Z,47.00
2022-08-11T01:57:18.918Z,48.25
2022-08-11T02:00:01.289Z,50.00
2022-08-11T02:02:49.276Z,44.33
2022-08-11T02:06:02.434Z,45.00
2022-08-11T02:08:50.634Z,44.50
2022-08-11T02:11:37.563Z,45.00
2022-08-11T02:14:21.983Z,45.25
2022-08-11T02:17:17.317Z,45.00
2022-08-11T02:20:24.227Z,45.75
2022-08-11T02:24:05.578Z,43.33
2022-08-11T02:26:46.481Z,45.50
2022-08-11T02:29:35.386Z,46.00
2022-08-11T02:32:43.908Z,42.00
2022-08-11T02:35:21.646Z,47.50
2022-08-11T02:37:57.819Z,47.75
2022-08-11T02:40:32.792Z,48.00
2022-08-11T02:43:22.150Z,46.75
2022-08-11T02:46:21.299Z,45.75
2022-08-11T02:49:24.376Z,43.75
2022-08-11T02:52:09.778Z,42.33
2022-08-11T02:55:05.743Z,45.00
2022-08-11T02:57:56.341Z,44.67
2022-08-11T03:03:18.939Z,46.50
2022-08-11T03:06:15.725Z,42.75
2022-08-11T03:09:42.584Z,44.25
2022-08-11T03:12:41.232Z,42.75
2022-08-11T03:15:41.583Z,42.00
2022-08-11T03:18:52.982Z,44.50
2022-08-11T03:22:02.784Z,43.25
2022-08-11T03:24:34.218Z,43.33
2022-08-11T03:27:17.180Z,41.00
2022-08-11T03:30:09.047Z,41.00
2022-08-11T03:33:32.885Z,42.00
2022-08-11T03:37:14.888Z,40.67
2022-08-11T03:39:56.172Z,42.00
2022-08-11T03:42:35.360Z,48.75
2022-08-11T03:45:41.202Z,39.25
2022-08-11T03:48:15.777Z,40.00
2022-08-11T03:50:55.152Z,42.00
2022-08-11T03:53:58.005Z,41.25
2022-08-11T03:56:51.978Z,41.75
2022-08-11T03:59:57.476Z,42.25
2022-08-11T04:03:01.249Z,37.75
2022-08-11T04:16:30.852Z,39.00
2022-08-11T04:19:43.817Z,31.00
2022-08-11T04:22:34.463Z,36.00
2022-08-11T04:25:57.828Z,45.67
2022-08-11T04:29:09.516Z,47.50
2022-08-11T04:32:01.553Z,40.50
2022-08-11T04:37:50.734Z,43.00
2022-08-11T04:40:42.281Z,42.00
2022-08-11T04:43:34.503Z,30.00
2022-08-11T04:46:23.561Z,40.50
2022-08-11T04:49:39.757Z,39.00
2022-08-11T04:53:06.987Z,35.50
2022-08-11T04:56:31.924Z,35.33
2022-08-11T04:59:40.126Z,37.00
2022-08-11T05:02:40.188Z,38.75
2022-08-11T05:05:56.242Z,41.00
2022-08-11T05:08:44.835Z,41.25
2022-08-11T05:11:21.024Z,37.33
2022-08-11T05:14:12.836Z,39.67
2022-08-11T05:17:14.857Z,41.00
2022-08-11T05:20:07.910Z,42.00
2022-08-11T05:26:46.249Z,35.33
2022-08-11T05:29:44.550Z,37.00
2022-08-11T05:39:33.852Z,32.50
2022-08-11T05:42:39.225Z,38.50
2022-08-11T05:45:49.946Z,37.75
2022-08-11T05:48:57.327Z,39.00
2022-08-11T05:52:05.498Z,39.00
2022-08-11T05:55:06.925Z,37.00
2022-08-11T05:57:50.925Z,37.50
2022-08-11T06:00:24.812Z,43.75
2022-08-11T06:03:02.391Z,49.75
2022-08-11T06:08:16.891Z,43.50
2022-08-11T06:10:48.904Z,43.50
2022-08-11T06:13:21.185Z,41.25
2022-08-11T06:15:54.572Z,41.75
2022-08-11T06:18:25.680Z,45.50
2022-08-11T06:21:03.912Z,43.50
2022-08-11T06:23:36.169Z,43.50
2022-08-11T06:26:12.645Z,42.00
2022-08-11T06:31:17.312Z,38.00
2022-08-11T06:34:11.518Z,42.25
2022-08-11T06:37:23.163Z,43.75
2022-08-11T06:40:26.389Z,43.50
2022-08-11T06:43:09.480Z,45.00
2022-08-11T06:45:58.879Z,46.50
2022-08-11T06:48:55.656Z,48.00
2022-08-11T06:51:37.912Z,50.00
2022-08-11T06:54:17.311Z,49.75
2022-08-11T06:57:31.269Z,48.00
2022-08-11T07:00:26.636Z,45.00
2022-08-11T07:07:18.467Z,48.00
2022-08-11T07:10:54.698Z,48.75
2022-08-11T07:13:54.406Z,47.75
2022-08-11T07:16:53.116Z,47.75
2022-08-11T07:22:53.333Z,48.00
2022-08-11T07:25:52.182Z,44.75
2022-08-11T07:28:48.101Z,42.00
2022-08-11T07:31:37.110Z,42.50
2022-08-11T07:34:42.336Z,41.50
2022-08-11T07:37:19.181Z,38.33
2022-08-11T07:39:51.672Z,38.75
2022-08-11T07:42:37.794Z,37.50
2022-08-11T07:45:28.356Z,36.25
2022-08-11T07:48:17.812Z,34.50
2022-08-11T07:53:41.910Z,43.00
2022-08-11T07:56:38.598Z,35.50
2022-08-11T08:00:00.005Z,37.50
2022-08-11T08:02:48.756Z,35.00
2022-08-11T08:05:38.877Z,34.67
2022-08-11T08:08:29.640Z,38.75
2022-08-11T08:11:21.309Z,41.00
2022-08-11T08:14:14.637Z,45.00
2022-08-11T08:17:03.236Z,43.50
2022-08-11T08:19:57.040Z,37.25
2022-08-11T08:22:39.508Z,29.50
2022-08-11T08:25:22.843Z,41.00
2022-08-11T08:28:09.441Z,32.00
2022-08-11T08:31:06.583Z,37.75
2022-08-11T08:33:45.146Z,34.00
2022-08-11T08:36:18.003Z,43.00
2022-08-11T08:38:58.125Z,30.00
2022-08-11T08:44:35.178Z,31.50
2022-08-11T08:47:01.253Z,26.75
2022-08-11T08:49:40.854Z,32.00
2022-08-11T08:52:39.449Z,30.25
2022-08-11T08:55:58.490Z,35.25
2022-08-11T08:58:29.460Z,34.50
2022-08-11T09:01:01.501Z,36.33
2022-08-11T09:04:04.632Z,35.50
2022-08-11T09:06:23.138Z,36.00
2022-08-11T09:08:56.526Z,35.00
2022-08-11T09:14:15.331Z,31.75
2022-08-11T09:16:45.853Z,30.00
2022-08-11T09:19:22.121Z,40.75
2022-08-11T09:22:12.759Z,36.25
2022-08-11T09:25:01.271Z,31.50
2022-08-11T09:27:31.958Z,34.25
2022-08-11T09:30:01.970Z,32.00
2022-08-11T09:32:32.871Z,36.50
2022-08-11T09:35:04.770Z,34.50
2022-08-11T09:37:56.359Z,39.00
2022-08-11T09:40:30.909Z,40.75
2022-08-11T09:43:22.230Z,37.75
2022-08-11T09:45:55.114Z,38.00
2022-08-11T09:48:27.728Z,36.33
2022-08-11T09:51:01.656Z,41.50
2022-08-11T09:53:41.327Z,35.33
2022-08-11T09:56:37.615Z,37.00
2022-08-11T09:59:08.530Z,31.75
2022-08-11T10:02:03.563Z,34.00
2022-08-11T10:04:44.526Z,37.75
2022-08-11T10:07:20.733Z,46.50
2022-08-11T10:10:13.551Z,42.00
2022-08-11T10:12:53.376Z,40.50
2022-08-11T10:15:36.232Z,37.67
2022-08-11T10:18:34.955Z,41.50
2022-08-11T10:21:26.355Z,41.33
2022-08-11T10:24:16.548Z,35.67
2022-08-11T10:29:49.920Z,37.33
2022-08-11T10:32:58.395Z,46.00
2022-08-11T10:35:33.817Z,38.75
2022-08-11T10:38:06.183Z,32.00
2022-08-11T10:43:56.803Z,37.75
2022-08-11T10:46:30.946Z,41.50
2022-08-11T10:49:02.029Z,42.75
2022-08-11T10:51:58.601Z,42.00
2022-08-11T10:54:48.117Z,38.75
2022-08-11T10:57:39.035Z,35.50
2022-08-11T11:00:16.869Z,31.00
2022-08-11T11:03:23.063Z,37.00
2022-08-11T11:06:27.402Z,33.50
2022-08-11T11:09:36.473Z,34.00
2022-08-11T11:16:10.959Z,38.25
2022-08-11T11:18:47.892Z,38.50
2022-08-11T11:21:43.289Z,44.00
2022-08-11T11:24:53.588Z,41.33
2022-08-11T11:27:54.036Z,38.50
2022-08-11T11:30:38.656Z,39.67
2022-08-11T11:34:06.374Z,36.00
2022-08-11T11:37:03.118Z,36.00
2022-08-11T11:39:42.746Z,34.67
2022-08-11T11:42:24.151Z,40.25
2022-08-11T11:48:28.965Z,38.67
2022-08-11T11:51:37.608Z,34.00
2022-08-11T11:55:00.045Z,33.00
2022-08-11T11:57:59.398Z,35.50
2022-08-11T12:01:04.572Z,33.00
2022-08-11T12:04:12.305Z,35.25
2022-08-11T12:07:23.476Z,32.67
2022-08-11T12:16:31.363Z,36.00
2022-08-11T12:18:49.565Z,35.33
2022-08-11T12:21:23.530Z,36.50
2022-08-11T12:24:12.219Z,32.50
2022-08-11T12:27:14.663Z,38.75
2022-08-11T12:29:41.382Z,35.00
2022-08-11T12:32:15.613Z,38.75
2022-08-11T12:34:46.360Z,42.00
2022-08-11T12:37:24.894Z,42.00
2022-08-11T12:40:43.475Z,37.00
2022-08-11T12:43:38.178Z,39.00
2022-08-11T12:46:19.617Z,34.67
2022-08-11T12:49:14.050Z,34.00
2022-08-11T12:52:13.459Z,38.50
2022-08-11T12:55:01.349Z,37.00
2022-08-11T12:58:01.970Z,37.00
2022-08-11T13:00:52.943Z,39.00
2022-08-11T13:03:42.902Z,36.25
2022-08-11T13:06:15.149Z,35.50
2022-08-11T13:08:49.883Z,36.00
2022-08-11T13:11:56.175Z,37.25
2022-08-11T13:14:35.080Z,34.00
2022-08-11T13:17:49.362Z,35.00
2022-08-11T13:20:39.459Z,37.75
2022-08-11T13:23:16.677Z,38.25
2022-08-11T13:26:36.872Z,40.00
2022-08-11T13:29:30.280Z,36.67
2022-08-11T13:35:01.354Z,34.75
2022-08-11T13:38:27.504Z,30.25
2022-08-11T13:40:55.273Z,36.00
2022-08-11T13:46:19.309Z,39.67
2022-08-11T13:48:51.968Z,42.25
2022-08-11T13:51:34.676Z,33.33
2022-08-11T13:54:10.779Z,36.67
2022-08-11T13:56:46.608Z,36.25
2022-08-11T13:59:29.559Z,35.75
2022-08-11T14:02:28.482Z,37.00
2022-08-11T14:05:07.736Z,37.50
2022-08-11T14:07:42.183Z,35.25
2022-08-11T14:10:16.349Z,31.25
2022-08-11T14:15:46.455Z,39.75
2022-08-11T14:18:23.923Z,34.25
2022-08-11T14:21:20.830Z,33.50
2022-08-11T14:24:18.387Z,32.75
2022-08-11T14:28:30.582Z,33.25
2022-08-11T14:31:01.473Z,30.00
2022-08-11T14:34:02.071Z,27.25
2022-08-11T14:40:53.439Z,35.00
2022-08-11T14:44:14.074Z,32.50
2022-08-11T14:47:28.176Z,34.50
2022-08-11T14:50:29.779Z,38.75
2022-08-11T14:53:29.543Z,36.00
2022-08-11T14:56:48.735Z,33.75
2022-08-11T14:59:20.962Z,34.33
2022-08-11T15:02:11.130Z,38.00
2022-08-11T15:04:43.784Z,31.25
2022-08-11T15:07:17.159Z,35.75
2022-08-11T15:10:12.170Z,32.67
2022-08-11T15:12:46.149Z,35.75
2022-08-11T15:15:35.120Z,37.75
2022-08-11T15:18:08.546Z,39.50
2022-08-11T15:20:57.046Z,36.75
2022-08-11T15:23:50.654Z,34.00
2022-08-11T15:27:03.466Z,38.33
2022-08-11T15:29:55.871Z,29.25
2022-08-11T15:32:57.390Z,33.00
2022-08-11T15:35:51.122Z,35.75
2022-08-11T15:38:24.149Z,35.25
2022-08-11T15:41:24.164Z,32.00
2022-08-11T15:44:44.560Z,36.50
2022-08-11T15:47:20.130Z,41.00
2022-08-11T15:50:14.397Z,37.33
2022-08-11T15:53:16.918Z,34.00
2022-08-11T15:55:49.855Z,35.33
2022-08-11T15:58:40.117Z,34.00
2022-08-11T16:01:30.889Z,36.00
2022-08-11T16:04:15.502Z,30.00
2022-08-11T16:06:58.105Z,31.25
2022-08-11T16:10:09.458Z,36.75
2022-08-11T16:16:15.550Z,37.50
2022-08-11T16:18:58.019Z,39.00
2022-08-11T16:21:36.561Z,37.25
2022-08-11T16:27:07.088Z,35.25
2022-08-11T16:27:13.653Z,34.75
2022-08-11T16:29:49.005Z,32.00
2022-08-11T16:32:25.660Z,35.00
2022-08-11T16:35:23.999Z,36.50
2022-08-11T16:38:14.137Z,35.50
2022-08-11T16:40:45.904Z,34.75
2022-08-11T16:46:39.216Z,37.33
2022-08-11T16:49:20.219Z,32.00
2022-08-11T16:51:50.729Z,24.00
2022-08-11T16:54:22.282Z,38.50
2022-08-11T16:57:20.112Z,34.75
2022-08-11T16:59:57.429Z,34.00
2022-08-11T17:02:52.057Z,33.00
2022-08-11T17:05:53.697Z,33.00
2022-08-11T17:09:05.853Z,38.00
2022-08-11T17:12:00.337Z,32.00
2022-08-11T17:14:39.120Z,35.33
2022-08-11T17:17:39.859Z,32.25
2022-08-11T17:20:39.549Z,35.50
2022-08-11T17:23:26.309Z,29.50
2022-08-11T17:26:00.442Z,36.75
2022-08-11T17:28:37.073Z,36.50
2022-08-11T17:31:26.307Z,43.25
2022-08-11T17:34:18.073Z,32.25
2022-08-11T17:36:48.431Z,37.33
2022-08-11T17:39:19.501Z,40.00
2022-08-11T17:42:07.939Z,34.67
2022-08-11T17:44:58.373Z,37.00
2022-08-11T17:47:47.662Z,36.25
2022-08-11T17:50:19.006Z,32.50
2022-08-11T17:53:08.635Z,37.75
2022-08-11T17:55:58.639Z,38.00
2022-08-11T17:58:47.700Z,39.75
2022-08-11T18:01:20.642Z,42.00
2022-08-11T18:06:34.084Z,35.00
2022-08-11T18:09:43.100Z,34.25
2022-08-11T18:12:32.353Z,34.75
2022-08-11T18:15:20.967Z,34.25
2022-08-11T18:18:08.918Z,36.50
2022-08-11T18:20:57.601Z,42.50
2022-08-11T18:23:47.254Z,33.75
2022-08-11T18:26:40.777Z,36.50
2022-08-11T18:29:29.753Z,38.00
2022-08-11T18:32:22.126Z,37.33
2022-08-11T18:35:14.647Z,35.50
2022-08-11T18:38:07.116Z,37.75
2022-08-11T18:40:57.722Z,34.75
2022-08-11T18:43:48.736Z,35.00
2022-08-11T18:46:37.687Z,34.25
2022-08-11T18:50:02.253Z,34.50
2022-08-11T18:52:56.200Z,36.25
2022-08-11T18:55:45.178Z,40.33
2022-08-11T18:58:41.197Z,39.25
2022-08-11T19:01:33.081Z,39.25
2022-08-11T19:07:18.774Z,37.00
2022-08-11T19:10:09.098Z,33.50
2022-08-11T19:13:01.316Z,34.33
2022-08-11T19:15:51.031Z,41.00
2022-08-11T19:18:42.807Z,39.00
2022-08-11T19:21:32.412Z,35.75
2022-08-11T19:24:24.844Z,37.33
2022-08-11T19:27:14.083Z,40.00
2022-08-11T19:30:12.372Z,38.25
2022-08-11T19:33:03.069Z,34.50
2022-08-11T19:35:52.865Z,43.00
2022-08-11T19:41:56.839Z,42.33
2022-08-11T19:44:42.236Z,40.25
2022-08-11T19:47:31.202Z,37.50
2022-08-11T19:50:24.426Z,35.50
2022-08-11T19:53:17.255Z,40.50
2022-08-11T19:56:08.389Z,35.67
2022-08-11T19:58:57.541Z,42.50
2022-08-11T20:02:12.465Z,40.50
2022-08-11T20:04:53.747Z,41.67
2022-08-11T20:10:33.242Z,41.75
2022-08-11T20:13:22.708Z,42.00
2022-08-11T20:16:16.809Z,42.00
2022-08-11T20:19:06.818Z,41.00
2022-08-11T20:21:57.187Z,43.25
2022-08-11T20:24:45.165Z,43.25
2022-08-11T20:27:34.024Z,40.33
2022-08-11T20:30:23.756Z,40.75
2022-08-11T20:33:12.916Z,38.67
2022-08-11T20:36:01.138Z,44.00
2022-08-11T20:38:52.880Z,47.75
2022-08-11T20:41:58.265Z,45.75
2022-08-11T20:44:48.808Z,50.00
2022-08-11T20:47:59.655Z,47.25
2022-08-11T20:50:48.923Z,42.75
2022-08-11T20:53:40.579Z,43.00
2022-08-11T20:56:30.114Z,46.50
2022-08-11T20:59:21.895Z,41.50
2022-08-11T21:02:12.424Z,43.00
2022-08-11T21:05:00.878Z,40.75
2022-08-11T21:14:00.579Z,42.50
2022-08-11T21:16:54.799Z,45.67
2022-08-11T21:20:00.093Z,43.00
2022-08-11T21:23:05.404Z,49.50
2022-08-11T21:26:07.159Z,48.00
2022-08-11T21:28:58.811Z,48.75
2022-08-11T21:31:50.709Z,47.50
2022-08-11T21:34:42.288Z,47.00
2022-08-11T21:37:32.931Z,45.25
2022-08-11T21:40:25.353Z,46.50
2022-08-11T21:43:14.021Z,47.00
2022-08-11T21:46:04.965Z,46.75
2022-08-11T21:48:55.553Z,47.50
2022-08-11T21:51:44.513Z,45.67
2022-08-11T21:54:33.792Z,46.00
2022-08-11T21:57:23.276Z,44.50
2022-08-11T22:00:17.285Z,48.50
2022-08-11T22:03:08.716Z,48.00
2022-08-11T22:05:57.670Z,43.75
2022-08-11T22:08:47.750Z,45.75
2022-08-11T22:11:36.444Z,47.00
2022-08-11T22:14:25.476Z,47.00
2022-08-11T22:17:13.529Z,48.75
2022-08-11T22:20:02.130Z,49.67
2022-08-11T22:22:53.981Z,50.00
2022-08-11T22:25:53.786Z,45.33
2022-08-11T22:28:43.115Z,47.50
2022-08-11T22:31:32.582Z,49.00
2022-08-11T22:34:21.346Z,47.75
2022-08-11T22:40:16.859Z,48.00
2022-08-11T22:43:04.797Z,47.00
2022-08-11T22:45:53.321Z,49.25
2022-08-11T22:48:41.785Z,48.75
2022-08-11T22:51:30.145Z,50.00
2022-08-11T22:54:20.368Z,47.00
2022-08-11T22:57:09.571Z,47.00
2022-08-11T22:59:58.746Z,48.25
2022-08-11T23:02:49.254Z,48.25
2022-08-11T23:05:37.735Z,49.75
2022-08-11T23:14:01.101Z,46.75
2022-08-11T23:16:51.110Z,47.00
2022-08-11T23:20:01.687Z,45.33
2022-08-11T23:22:49.807Z,49.00
2022-08-11T23:25:38.776Z,50.00
2022-08-11T23:28:29.363Z,49.00
2022-08-11T23:31:18.742Z,50.00
2022-08-11T23:34:43.483Z,49.33
2022-08-11T23:37:21.330Z,49.00
2022-08-11T23:40:09.792Z,50.00
2022-08-11T23:43:01.276Z,50.00
2022-08-11T23:45:49.042Z,50.00
2022-08-11T23:48:39.678Z,49.75
2022-08-11T23:51:37.727Z,50.00
2022-08-11T23:54:33.817Z,50.00
2022-08-11T23:57:26.232Z,50.00
